Poseidon — WDJ2022 — position and weather

sailwx.info

Track history (hours):
 
Tides and Currents Weather Stations Pressure Air Temp Water Temp Dewpoint Dewpoint Depression Visibility Wind Speed Wind Dir Waves Ship Positions

Poseidon

Owner: G & H Towing Company, Galveston, TX. More information available from US FCC via Universal Licensing System and Coast Guard Vessel Documentation Center.

Last reported at 2017-Dec-11 16:15 UTC. Time now 2017-Dec-12 12:22 UTC.
Position N 29°45' W 095°10'.

Length 24 m; draft 5.4 m.

Type: Tug. MMSI: 367754480.

Date/timePositionNaut miles runAvg speedWind from/ knotsBaromVisibWave heightAir tempDewpointWater temp
2017-Dec-11 16:15N 29°45' W 095°10'1 0.9
2017-Dec-11 14:51N 29°44' W 095°09'2 6.3
2017-Dec-11 14:30N 29°45' W 095°11'3 5.7
2017-Dec-11 13:57N 29°43' W 095°14'2 4.5
2017-Dec-11 13:30N 29°44' W 095°17'0 0.9
2017-Dec-11 13:00N 29°44' W 095°16'0 0.1
2017-Dec-11 06:58N 29°44' W 095°16'0 0.0
2017-Dec-11 06:11N 29°44' W 095°16'0 0.9
2017-Dec-11 06:00N 29°44' W 095°16'0 0.2
2017-Dec-11 05:30N 29°44' W 095°16'1 1.0
2017-Dec-11 05:00N 29°44' W 095°16'3 5.4
2017-Dec-11 04:30N 29°44' W 095°13'1 2.5
2017-Dec-11 04:00N 29°45' W 095°12'1 1.0
2017-Dec-11 03:27N 29°45' W 095°11'0 0.3
2017-Dec-11 02:52N 29°45' W 095°11'1 0.7
2017-Dec-11 02:07N 29°45' W 095°10'0 0.0
2017-Dec-11 01:47N 29°45' W 095°10'1 1.1
2017-Dec-11 00:47N 29°44' W 095°09'1 4.1
2017-Dec-11 00:29N 29°45' W 095°10'0 0.0
2017-Dec-11 00:00N 29°45' W 095°10'0 0.0
2017-Dec-10 23:30N 29°45' W 095°10'3 5.6
2017-Dec-10 22:57N 29°44' W 095°14'3 3.5
2017-Dec-10 22:14N 29°44' W 095°17'0 1.8
2017-Dec-10 21:57N 29°44' W 095°16'2 4.8
2017-Dec-10 21:30N 29°43' W 095°14'2 0.5
2017-Dec-10 18:28N 29°44' W 095°12'0 0.1
2017-Dec-10 17:58N 29°44' W 095°12'2 3.1
2017-Dec-10 17:28N 29°45' W 095°11'2 0.4
2017-Dec-10 13:20N 29°44' W 095°12'0 0.5
2017-Dec-10 13:01N 29°44' W 095°12'0 0.0
2017-Dec-10 07:31N 29°44' W 095°12'0 3.5
2017-Dec-10 07:30N 29°44' W 095°12'4 6.7
2017-Dec-10 06:57N 29°44' W 095°08'0 0.6
2017-Dec-10 06:22N 29°44' W 095°08'2 4.4
2017-Dec-10 06:00N 29°45' W 095°07'0 0.0
2017-Dec-10 05:30N 29°45' W 095°07'0 0.0
2017-Dec-10 05:00N 29°45' W 095°07'0 0.3
2017-Dec-10 03:31N 29°45' W 095°06'0 3.0
2017-Dec-10 03:30N 29°45' W 095°06'3 5.3
2017-Dec-10 03:00N 29°44' W 095°09'1 1.5
2017-Dec-10 02:12N 29°45' W 095°10'0 0.1
2017-Dec-10 00:38N 29°45' W 095°10'0 0.0
2017-Dec-09 23:38N 29°45' W 095°10'4 1.0
2017-Dec-09 19:41N 29°45' W 095°06'0 0.3
2017-Dec-09 19:02N 29°45' W 095°06'0 7.9
2017-Dec-09 19:00N 29°44' W 095°06'4 7.4
2017-Dec-09 18:29N 29°45' W 095°11'1 2.1
2017-Dec-09 17:51N 29°44' W 095°12'0 0.3
2017-Dec-09 17:27N 29°44' W 095°12'2 3.6
2017-Dec-09 16:56N 29°45' W 095°10'1 3.2
2017-Dec-09 16:30N 29°44' W 095°09'2 2.7
2017-Dec-09 15:49N 29°45' W 095°07'0 0.0
2017-Dec-09 15:25N 29°45' W 095°07'0 0.0
2017-Dec-09 14:58N 29°45' W 095°07'0 0.0
2017-Dec-09 14:28N 29°45' W 095°07'0 0.2
2017-Dec-09 12:39N 29°44' W 095°07'0 0.2
2017-Dec-09 11:19N 29°45' W 095°07'0 0.0
2017-Dec-09 10:58N 29°45' W 095°07'0 0.0
2017-Dec-09 10:30N 29°45' W 095°07'0 0.1
2017-Dec-09 09:40N 29°44' W 095°07'0 0.1
2017-Dec-09 07:06N 29°44' W 095°07'0 0.9
2017-Dec-09 06:48N 29°44' W 095°07'1 2.4
2017-Dec-09 06:26N 29°45' W 095°06'0 0.2
2017-Dec-09 05:34N 29°45' W 095°06'0 0.1
2017-Dec-09 05:30N 29°45' W 095°06'1 0.5
2017-Dec-09 04:17N 29°44' W 095°07'0 0.3
2017-Dec-09 03:26N 29°44' W 095°07'5 1.7
2017-Dec-09 00:21N 29°43' W 095°01'2 6.9
2017-Dec-09 00:00N 29°41' W 094°59'1 2.1
2017-Dec-08 23:27N 29°41' W 095°01'1 1.9
2017-Dec-08 23:00N 29°41' W 094°60'1 1.4
2017-Dec-08 22:30N 29°41' W 094°59'3 2.5
2017-Dec-08 21:29N 29°42' W 095°01'3 1.5
2017-Dec-08 19:45N 29°44' W 095°03'2 7.9
2017-Dec-08 19:28N 29°46' W 095°05'5 7.4
2017-Dec-08 18:50N 29°45' W 095°11'2 4.6
2017-Dec-08 18:28N 29°44' W 095°12'0 0.1
2017-Dec-08 17:56N 29°44' W 095°12'0 0.5
2017-Dec-08 17:29N 29°44' W 095°12'0 0.0
2017-Dec-08 14:41N 29°44' W 095°12'3 2.0
2017-Dec-08 13:09N 29°44' W 095°09'0 0.8
2017-Dec-08 13:00N 29°44' W 095°09'1 1.4
2017-Dec-08 12:01N 29°45' W 095°10'0 0.0
2017-Dec-08 11:58N 29°45' W 095°10'0 0.0
2017-Dec-08 10:10N 29°45' W 095°10'0 0.0
2017-Dec-08 09:55N 29°45' W 095°10'3 2.0
2017-Dec-08 08:38N 29°44' W 095°13'1 3.9
2017-Dec-08 08:27N 29°44' W 095°12'1 0.5
2017-Dec-08 07:01N 29°44' W 095°13'1 8.2
2017-Dec-08 06:56N 29°44' W 095°14'0 0.7
2017-Dec-08 06:21N 29°43' W 095°14'0 0.4
2017-Dec-08 05:59N 29°43' W 095°14'1 1.3
2017-Dec-08 05:30N 29°44' W 095°13'1 0.4
2017-Dec-08 02:21N 29°44' W 095°12'3 6.6
2017-Dec-08 01:55N 29°44' W 095°15'1 1.3
2017-Dec-08 01:30N 29°44' W 095°16'0 0.3
2017-Dec-08 01:00N 29°43' W 095°16'0 0.7
2017-Dec-08 00:22N 29°44' W 095°16'2 4.9
2017-Dec-07 23:57N 29°43' W 095°14'1 0.1
2017-Dec-07 19:23N 29°44' W 095°13'0 0.0
2017-Dec-07 18:36N 29°44' W 095°13'0 0.2
2017-Dec-07 18:30N 29°44' W 095°13'3 4.7
2017-Dec-07 17:49N 29°45' W 095°10'0 0.3
2017-Dec-07 17:30N 29°45' W 095°10'0 0.0
2017-Dec-07 17:00N 29°45' W 095°10'0 0.0
2017-Dec-07 16:30N 29°45' W 095°10'0 0.0
2017-Dec-07 15:57N 29°45' W 095°10'0 0.0
2017-Dec-07 15:30N 29°45' W 095°10'0 0.0
2017-Dec-07 15:00N 29°45' W 095°10'0 0.0
2017-Dec-07 14:30N 29°45' W 095°10'0 0.0
2017-Dec-07 14:00N 29°45' W 095°10'0 0.0
2017-Dec-07 13:30N 29°45' W 095°10'0 0.0
2017-Dec-07 13:00N 29°45' W 095°10'0 0.0
2017-Dec-07 12:24N 29°45' W 095°10'0 0.4
2017-Dec-07 11:42N 29°45' W 095°10'1 3.7
2017-Dec-07 11:26N 29°44' W 095°09'3 6.1
2017-Dec-07 11:01N 29°45' W 095°06'1 2.8
2017-Dec-07 10:28N 29°44' W 095°08'0 0.1
2017-Dec-07 09:35N 29°44' W 095°08'1 4.4
2017-Dec-07 09:17N 29°45' W 095°06'2 2.4
2017-Dec-07 08:38N 29°44' W 095°08'1 8.1
2017-Dec-07 08:29N 29°44' W 095°09'2 2.0
2017-Dec-07 07:33N 29°45' W 095°11'0 0.4
2017-Dec-07 07:26N 29°45' W 095°11'1 1.5
2017-Dec-07 07:00N 29°44' W 095°12'5 0.8
2017-Dec-07 01:18N 29°44' W 095°07'5 2.5
2017-Dec-06 23:15N 29°43' W 095°01'2 6.6
2017-Dec-06 23:01N 29°42' W 094°60'1 2.5
2017-Dec-06 22:28N 29°42' W 095°01'2 4.1
2017-Dec-06 22:00N 29°44' W 095°02'  
2017-Dec-03 21:11N 29°45' W 095°07'1 0.7
2017-Dec-03 20:17N 29°44' W 095°07'1 0.7
2017-Dec-03 19:10N 29°44' W 095°08'2 7.6
2017-Dec-03 18:52N 29°45' W 095°11'1 0.8
2017-Dec-03 16:59N 29°44' W 095°12'1 1.0
2017-Dec-03 15:45N 29°44' W 095°13'1 5.5
2017-Dec-03 15:30N 29°43' W 095°15'2 0.7
2017-Dec-03 13:18N 29°43' W 095°13'0 0.1
2017-Dec-03 09:55N 29°44' W 095°13'0 0.3
2017-Dec-03 08:53N 29°44' W 095°13'0 0.2
2017-Dec-03 07:30N 29°44' W 095°13'1 1.5
2017-Dec-03 06:52N 29°43' W 095°14'2 1.2
2017-Dec-03 05:36N 29°44' W 095°12'1 8.0
2017-Dec-03 05:30N 29°45' W 095°12'1 1.1
2017-Dec-03 05:01N 29°45' W 095°11'0 0.0
2017-Dec-03 04:31N 29°45' W 095°11'1 1.9
2017-Dec-03 03:58N 29°44' W 095°12'2 0.9
2017-Dec-03 02:01N 29°45' W 095°10'0 0.0
2017-Dec-03 01:50N 29°45' W 095°10'3 0.3
2017-Dec-02 16:09N 29°44' W 095°07'1 3.1
2017-Dec-02 15:51N 29°44' W 095°08'0 0.0
2017-Dec-02 15:30N 29°44' W 095°08'4 4.1
2017-Dec-02 14:39N 29°45' W 095°12'2 7.4
2017-Dec-02 14:23N 29°44' W 095°14'0 0.5
2017-Dec-02 13:55N 29°43' W 095°14'0 0.2
2017-Dec-02 12:25N 29°44' W 095°14'0 0.2
2017-Dec-02 11:58N 29°43' W 095°14'0 0.2
2017-Dec-02 11:18N 29°43' W 095°14'2 0.5
2017-Dec-02 08:24N 29°44' W 095°12'0 0.2
2017-Dec-02 08:00N 29°44' W 095°12'2 3.9
2017-Dec-02 07:30N 29°45' W 095°10'0 0.2
2017-Dec-02 07:00N 29°45' W 095°10'0 0.0
2017-Dec-02 06:29N 29°45' W 095°10'0 0.0
2017-Dec-02 06:00N 29°45' W 095°10'0 0.0
2017-Dec-02 05:30N 29°45' W 095°10'0 0.0
2017-Dec-02 05:00N 29°45' W 095°10'0 0.0
2017-Dec-02 04:29N 29°45' W 095°10'0 0.2
2017-Dec-02 02:10N 29°45' W 095°11'0 1.5
2017-Dec-02 01:53N 29°45' W 095°11'1 0.5
2017-Dec-01 23:33N 29°45' W 095°10'0 1.1
2017-Dec-01 23:29N 29°44' W 095°10'0 0.0
2017-Dec-01 23:00N 29°44' W 095°10'1 1.7
2017-Dec-01 22:28N 29°44' W 095°09'2 0.5
2017-Dec-01 17:33N 29°45' W 095°06'0 7.7
2017-Dec-01 17:30N 29°44' W 095°07'  
Track history (hours):
 
Tides and Currents Weather Stations Pressure Air Temp Water Temp Dewpoint Dewpoint Depression Visibility Wind Speed Wind Dir Waves Ship Positions

Poseidon

Owner: G & H Towing Company, Galveston, TX. More information available from US FCC via Universal Licensing System and Coast Guard Vessel Documentation Center.

Last reported at 2017-Dec-11 16:15 UTC. Time now 2017-Dec-12 12:22 UTC.
Position N 29°45' W 095°10'.

Length 24 m; draft 5.4 m.

Type: Tug. MMSI: 367754480.

Date/timePositionNaut miles runAvg speedWind from/ knotsBaromVisibWave heightAir tempDewpointWater temp
2017-Dec-11 16:15N 29°45' W 095°10'1 0.9
2017-Dec-11 14:51N 29°44' W 095°09'2 6.3
2017-Dec-11 14:30N 29°45' W 095°11'3 5.7
2017-Dec-11 13:57N 29°43' W 095°14'2 4.5
2017-Dec-11 13:30N 29°44' W 095°17'0 0.9
2017-Dec-11 13:00N 29°44' W 095°16'0 0.1
2017-Dec-11 06:58N 29°44' W 095°16'0 0.0
2017-Dec-11 06:11N 29°44' W 095°16'0 0.9
2017-Dec-11 06:00N 29°44' W 095°16'0 0.2
2017-Dec-11 05:30N 29°44' W 095°16'1 1.0
2017-Dec-11 05:00N 29°44' W 095°16'3 5.4
2017-Dec-11 04:30N 29°44' W 095°13'1 2.5
2017-Dec-11 04:00N 29°45' W 095°12'1 1.0
2017-Dec-11 03:27N 29°45' W 095°11'0 0.3
2017-Dec-11 02:52N 29°45' W 095°11'1 0.7
2017-Dec-11 02:07N 29°45' W 095°10'0 0.0
2017-Dec-11 01:47N 29°45' W 095°10'1 1.1
2017-Dec-11 00:47N 29°44' W 095°09'1 4.1
2017-Dec-11 00:29N 29°45' W 095°10'0 0.0
2017-Dec-11 00:00N 29°45' W 095°10'0 0.0
2017-Dec-10 23:30N 29°45' W 095°10'3 5.6
2017-Dec-10 22:57N 29°44' W 095°14'3 3.5
2017-Dec-10 22:14N 29°44' W 095°17'0 1.8
2017-Dec-10 21:57N 29°44' W 095°16'2 4.8
2017-Dec-10 21:30N 29°43' W 095°14'2 0.5
2017-Dec-10 18:28N 29°44' W 095°12'0 0.1
2017-Dec-10 17:58N 29°44' W 095°12'2 3.1
2017-Dec-10 17:28N 29°45' W 095°11'2 0.4
2017-Dec-10 13:20N 29°44' W 095°12'0 0.5
2017-Dec-10 13:01N 29°44' W 095°12'0 0.0
2017-Dec-10 07:31N 29°44' W 095°12'0 3.5
2017-Dec-10 07:30N 29°44' W 095°12'4 6.7
2017-Dec-10 06:57N 29°44' W 095°08'0 0.6
2017-Dec-10 06:22N 29°44' W 095°08'2 4.4
2017-Dec-10 06:00N 29°45' W 095°07'0 0.0
2017-Dec-10 05:30N 29°45' W 095°07'0 0.0
2017-Dec-10 05:00N 29°45' W 095°07'0 0.3
2017-Dec-10 03:31N 29°45' W 095°06'0 3.0
2017-Dec-10 03:30N 29°45' W 095°06'3 5.3
2017-Dec-10 03:00N 29°44' W 095°09'1 1.5
2017-Dec-10 02:12N 29°45' W 095°10'0 0.1
2017-Dec-10 00:38N 29°45' W 095°10'0 0.0
2017-Dec-09 23:38N 29°45' W 095°10'4 1.0
2017-Dec-09 19:41N 29°45' W 095°06'0 0.3
2017-Dec-09 19:02N 29°45' W 095°06'0 7.9
2017-Dec-09 19:00N 29°44' W 095°06'4 7.4
2017-Dec-09 18:29N 29°45' W 095°11'1 2.1
2017-Dec-09 17:51N 29°44' W 095°12'0 0.3
2017-Dec-09 17:27N 29°44' W 095°12'2 3.6
2017-Dec-09 16:56N 29°45' W 095°10'1 3.2
2017-Dec-09 16:30N 29°44' W 095°09'2 2.7
2017-Dec-09 15:49N 29°45' W 095°07'0 0.0
2017-Dec-09 15:25N 29°45' W 095°07'0 0.0
2017-Dec-09 14:58N 29°45' W 095°07'0 0.0
2017-Dec-09 14:28N 29°45' W 095°07'0 0.2
2017-Dec-09 12:39N 29°44' W 095°07'0 0.2
2017-Dec-09 11:19N 29°45' W 095°07'0 0.0
2017-Dec-09 10:58N 29°45' W 095°07'0 0.0
2017-Dec-09 10:30N 29°45' W 095°07'0 0.1
2017-Dec-09 09:40N 29°44' W 095°07'0 0.1
2017-Dec-09 07:06N 29°44' W 095°07'0 0.9
2017-Dec-09 06:48N 29°44' W 095°07'1 2.4
2017-Dec-09 06:26N 29°45' W 095°06'0 0.2
2017-Dec-09 05:34N 29°45' W 095°06'0 0.1
2017-Dec-09 05:30N 29°45' W 095°06'1 0.5
2017-Dec-09 04:17N 29°44' W 095°07'0 0.3
2017-Dec-09 03:26N 29°44' W 095°07'5 1.7
2017-Dec-09 00:21N 29°43' W 095°01'2 6.9
2017-Dec-09 00:00N 29°41' W 094°59'1 2.1
2017-Dec-08 23:27N 29°41' W 095°01'1 1.9
2017-Dec-08 23:00N 29°41' W 094°60'1 1.4
2017-Dec-08 22:30N 29°41' W 094°59'3 2.5
2017-Dec-08 21:29N 29°42' W 095°01'3 1.5
2017-Dec-08 19:45N 29°44' W 095°03'2 7.9
2017-Dec-08 19:28N 29°46' W 095°05'5 7.4
2017-Dec-08 18:50N 29°45' W 095°11'2 4.6
2017-Dec-08 18:28N 29°44' W 095°12'0 0.1
2017-Dec-08 17:56N 29°44' W 095°12'0 0.5
2017-Dec-08 17:29N 29°44' W 095°12'0 0.0
2017-Dec-08 14:41N 29°44' W 095°12'3 2.0
2017-Dec-08 13:09N 29°44' W 095°09'0 0.8
2017-Dec-08 13:00N 29°44' W 095°09'1 1.4
2017-Dec-08 12:01N 29°45' W 095°10'0 0.0
2017-Dec-08 11:58N 29°45' W 095°10'0 0.0
2017-Dec-08 10:10N 29°45' W 095°10'0 0.0
2017-Dec-08 09:55N 29°45' W 095°10'3 2.0
2017-Dec-08 08:38N 29°44' W 095°13'1 3.9
2017-Dec-08 08:27N 29°44' W 095°12'1 0.5
2017-Dec-08 07:01N 29°44' W 095°13'1 8.2
2017-Dec-08 06:56N 29°44' W 095°14'0 0.7
2017-Dec-08 06:21N 29°43' W 095°14'0 0.4
2017-Dec-08 05:59N 29°43' W 095°14'1 1.3
2017-Dec-08 05:30N 29°44' W 095°13'1 0.4
2017-Dec-08 02:21N 29°44' W 095°12'3 6.6
2017-Dec-08 01:55N 29°44' W 095°15'1 1.3
2017-Dec-08 01:30N 29°44' W 095°16'0 0.3
2017-Dec-08 01:00N 29°43' W 095°16'0 0.7
2017-Dec-08 00:22N 29°44' W 095°16'2 4.9
2017-Dec-07 23:57N 29°43' W 095°14'1 0.1
2017-Dec-07 19:23N 29°44' W 095°13'0 0.0
2017-Dec-07 18:36N 29°44' W 095°13'0 0.2
2017-Dec-07 18:30N 29°44' W 095°13'3 4.7
2017-Dec-07 17:49N 29°45' W 095°10'0 0.3
2017-Dec-07 17:30N 29°45' W 095°10'0 0.0
2017-Dec-07 17:00N 29°45' W 095°10'0 0.0
2017-Dec-07 16:30N 29°45' W 095°10'0 0.0
2017-Dec-07 15:57N 29°45' W 095°10'0 0.0
2017-Dec-07 15:30N 29°45' W 095°10'0 0.0
2017-Dec-07 15:00N 29°45' W 095°10'0 0.0
2017-Dec-07 14:30N 29°45' W 095°10'0 0.0
2017-Dec-07 14:00N 29°45' W 095°10'0 0.0
2017-Dec-07 13:30N 29°45' W 095°10'0 0.0
2017-Dec-07 13:00N 29°45' W 095°10'0 0.0
2017-Dec-07 12:24N 29°45' W 095°10'0 0.4
2017-Dec-07 11:42N 29°45' W 095°10'1 3.7
2017-Dec-07 11:26N 29°44' W 095°09'3 6.1
2017-Dec-07 11:01N 29°45' W 095°06'1 2.8
2017-Dec-07 10:28N 29°44' W 095°08'0 0.1
2017-Dec-07 09:35N 29°44' W 095°08'1 4.4
2017-Dec-07 09:17N 29°45' W 095°06'2 2.4
2017-Dec-07 08:38N 29°44' W 095°08'1 8.1
2017-Dec-07 08:29N 29°44' W 095°09'2 2.0
2017-Dec-07 07:33N 29°45' W 095°11'0 0.4
2017-Dec-07 07:26N 29°45' W 095°11'1 1.5
2017-Dec-07 07:00N 29°44' W 095°12'5 0.8
2017-Dec-07 01:18N 29°44' W 095°07'5 2.5
2017-Dec-06 23:15N 29°43' W 095°01'2 6.6
2017-Dec-06 23:01N 29°42' W 094°60'1 2.5
2017-Dec-06 22:28N 29°42' W 095°01'2 4.1
2017-Dec-06 22:00N 29°44' W 095°02'  
2017-Dec-03 21:11N 29°45' W 095°07'1 0.7
2017-Dec-03 20:17N 29°44' W 095°07'1 0.7
2017-Dec-03 19:10N 29°44' W 095°08'2 7.6
2017-Dec-03 18:52N 29°45' W 095°11'1 0.8
2017-Dec-03 16:59N 29°44' W 095°12'1 1.0
2017-Dec-03 15:45N 29°44' W 095°13'1 5.5
2017-Dec-03 15:30N 29°43' W 095°15'2 0.7
2017-Dec-03 13:18N 29°43' W 095°13'0 0.1
2017-Dec-03 09:55N 29°44' W 095°13'0 0.3
2017-Dec-03 08:53N 29°44' W 095°13'0 0.2
2017-Dec-03 07:30N 29°44' W 095°13'1 1.5
2017-Dec-03 06:52N 29°43' W 095°14'2 1.2
2017-Dec-03 05:36N 29°44' W 095°12'1 8.0
2017-Dec-03 05:30N 29°45' W 095°12'1 1.1
2017-Dec-03 05:01N 29°45' W 095°11'0 0.0
2017-Dec-03 04:31N 29°45' W 095°11'1 1.9
2017-Dec-03 03:58N 29°44' W 095°12'2 0.9
2017-Dec-03 02:01N 29°45' W 095°10'0 0.0
2017-Dec-03 01:50N 29°45' W 095°10'3 0.3
2017-Dec-02 16:09N 29°44' W 095°07'1 3.1
2017-Dec-02 15:51N 29°44' W 095°08'0 0.0
2017-Dec-02 15:30N 29°44' W 095°08'4 4.1
2017-Dec-02 14:39N 29°45' W 095°12'2 7.4
2017-Dec-02 14:23N 29°44' W 095°14'0 0.5
2017-Dec-02 13:55N 29°43' W 095°14'0 0.2
2017-Dec-02 12:25N 29°44' W 095°14'0 0.2
2017-Dec-02 11:58N 29°43' W 095°14'0 0.2
2017-Dec-02 11:18N 29°43' W 095°14'2 0.5
2017-Dec-02 08:24N 29°44' W 095°12'0 0.2
2017-Dec-02 08:00N 29°44' W 095°12'2 3.9
2017-Dec-02 07:30N 29°45' W 095°10'0 0.2
2017-Dec-02 07:00N 29°45' W 095°10'0 0.0
2017-Dec-02 06:29N 29°45' W 095°10'0 0.0
2017-Dec-02 06:00N 29°45' W 095°10'0 0.0
2017-Dec-02 05:30N 29°45' W 095°10'0 0.0
2017-Dec-02 05:00N 29°45' W 095°10'0 0.0
2017-Dec-02 04:29N 29°45' W 095°10'0 0.2
2017-Dec-02 02:10N 29°45' W 095°11'0 1.5
2017-Dec-02 01:53N 29°45' W 095°11'1 0.5
2017-Dec-01 23:33N 29°45' W 095°10'0 1.1
2017-Dec-01 23:29N 29°44' W 095°10'0 0.0
2017-Dec-01 23:00N 29°44' W 095°10'1 1.7
2017-Dec-01 22:28N 29°44' W 095°09'2 0.5
2017-Dec-01 17:33N 29°45' W 095°06'0 7.7
2017-Dec-01 17:30N 29°44' W 095°07'  

Dump ship's entire track history